Aérodrome :
LOGIN :

S'inscrire | Disclaimer

   EN    FR    IT 

 










Légende :    VFR   VFR Marginal   IFR   IFR Intensif   IFR Très Intensif
Visi : 
Plafond : 
>= 8 km
>= 3000ft
5 à 8 km
1000 à 3000 ft
1500m à 5 km
500 à 1000 ft
800 à 1500m
200 à 500 ft
< 800m
< 200 ft
Symboles :   Orages  Brouillard  Fortes neiges  Fortes précipitations  Vent > 20 kt
SIGMETs :   Divers  Orages  Givrage  Turbulence  Onde Orograph.  Cendres Volcan.






- Altitude de l'aérodrome : 474 ft
- Code IATA : HFS


ESOH - Hagfors

DERNIER METAR :
  • 221450Z AUTO 33004KT 290V350 9999 NCD 02/M07 Q1026

METARs EXPIRÉS :
  • 221420Z AUTO 30005KT 270V340 9999 NCD 03/M07 Q1026
  • 221350Z AUTO 31004KT 250V350 9999 NCD 04/M07 Q1025
  • 221320Z AUTO 30006KT 260V350 9999 NCD 04/M07 Q1025
  • 221250Z AUTO 32006KT 280V360 9999 NCD 04/M07 Q1025
  • 221220Z AUTO 31007KT 9999 NCD 04/M06 Q1024

TAF N/A



MET'MAP, la Météo Aéronautique d'un coup d'oeil ! - Copyright ORBIFLY Décembre 2007 - Disclaimer

ORBIFLY MET'MAP TEAM :

Programmation & Développement : Alexandra Zaïnal
Sur une idée originale de : Baudouin d'Aumeries
Assistance à la programmation : Marc-Olivier Méhu
Soutien technique & logistique : Manuel Goepfert

Contact : metmap@orbifly.com




SOURCES & CREDITS :

   NOAA